createdAt,value
2018-11-29T00:01:32.990Z,16.23
2018-11-29T00:04:05.053Z,14.65
2018-11-29T00:06:37.314Z,16.65
2018-11-29T00:09:09.336Z,18.62
2018-11-29T00:11:41.364Z,16.73
2018-11-29T00:14:13.546Z,17.20
2018-11-29T00:16:45.626Z,19.00
2018-11-29T00:19:17.681Z,16.17
2018-11-29T00:21:49.717Z,16.95
2018-11-29T00:24:21.886Z,16.07
2018-11-29T00:26:53.920Z,15.13
2018-11-29T00:29:25.973Z,14.20
2018-11-29T00:31:57.987Z,14.18
2018-11-29T00:34:30.051Z,15.72
2018-11-29T00:37:02.052Z,16.07
2018-11-29T00:39:34.124Z,13.40
2018-11-29T00:42:06.177Z,14.75
2018-11-29T00:44:38.593Z,14.65
2018-11-29T00:47:10.601Z,16.40
2018-11-29T00:49:42.649Z,15.45
2018-11-29T00:52:14.653Z,16.02
2018-11-29T00:54:46.705Z,14.00
2018-11-29T00:57:18.701Z,12.58
2018-11-29T00:59:50.794Z,14.55
2018-11-29T01:02:22.822Z,13.78
2018-11-29T01:04:54.894Z,13.25
2018-11-29T01:07:26.965Z,14.03
2018-11-29T01:09:59.065Z,14.70
2018-11-29T01:12:31.133Z,13.78
2018-11-29T01:15:03.825Z,13.28
2018-11-29T01:17:35.852Z,12.55
2018-11-29T01:20:10.170Z,13.40
2018-11-29T01:22:42.246Z,12.88
2018-11-29T01:25:14.883Z,11.50
2018-11-29T01:27:48.056Z,12.40
2018-11-29T01:30:20.532Z,12.55
2018-11-29T01:32:52.559Z,14.23
2018-11-29T01:35:24.648Z,13.38
2018-11-29T01:37:56.705Z,12.73
2018-11-29T01:40:28.733Z,11.35
2018-11-29T01:43:00.779Z,12.23
2018-11-29T01:45:32.893Z,12.07
2018-11-29T01:48:05.062Z,11.90
2018-11-29T01:50:37.134Z,12.45
2018-11-29T01:53:09.182Z,13.32
2018-11-29T01:55:41.235Z,10.80
2018-11-29T01:58:13.375Z,11.83
2018-11-29T02:00:45.430Z,11.43
2018-11-29T02:03:17.493Z,12.60
2018-11-29T02:05:49.553Z,11.28
2018-11-29T02:08:21.592Z,11.22
2018-11-29T02:10:53.644Z,12.40
2018-11-29T02:13:25.749Z,9.00
2018-11-29T02:15:57.791Z,11.33
2018-11-29T02:18:29.829Z,9.58
2018-11-29T02:21:01.950Z,10.35
2018-11-29T02:23:34.029Z,10.20
2018-11-29T02:26:06.122Z,9.80
2018-11-29T02:28:39.730Z,9.55
2018-11-29T02:31:11.794Z,9.88
2018-11-29T02:33:43.810Z,9.53
2018-11-29T02:36:16.181Z,9.93
2018-11-29T02:38:48.266Z,9.28
2018-11-29T02:41:20.374Z,8.28
2018-11-29T02:43:52.426Z,9.73
2018-11-29T02:46:24.484Z,8.90
2018-11-29T02:48:56.510Z,8.00
2018-11-29T02:51:28.586Z,9.35
2018-11-29T02:54:00.598Z,9.05
2018-11-29T02:56:32.654Z,8.58
2018-11-29T02:59:04.985Z,9.23
2018-11-29T03:01:37.045Z,8.80
2018-11-29T03:04:09.066Z,9.48
2018-11-29T03:06:41.129Z,9.15
2018-11-29T03:09:13.223Z,8.30
2018-11-29T03:11:45.322Z,10.48
2018-11-29T03:14:17.374Z,8.83
2018-11-29T03:16:49.426Z,9.60
2018-11-29T03:19:21.481Z,10.28
2018-11-29T03:21:53.668Z,11.75
2018-11-29T03:24:25.699Z,11.10
2018-11-29T03:26:57.766Z,12.18
2018-11-29T03:29:29.810Z,9.93
2018-11-29T03:32:01.884Z,11.10
2018-11-29T03:34:33.941Z,9.20
2018-11-29T03:37:06.311Z,13.58
2018-11-29T03:39:38.393Z,11.08
2018-11-29T03:42:10.446Z,11.48
2018-11-29T03:44:42.490Z,12.18
2018-11-29T03:47:14.561Z,12.15
2018-11-29T03:49:46.589Z,11.33
2018-11-29T03:52:18.649Z,13.50
2018-11-29T03:54:50.710Z,13.22
2018-11-29T03:57:22.913Z,14.90
2018-11-29T03:59:54.949Z,14.75
2018-11-29T04:02:27.077Z,14.38
2018-11-29T04:04:59.130Z,26.05
2018-11-29T04:07:31.377Z,13.80
2018-11-29T04:10:03.982Z,14.23
2018-11-29T04:12:36.086Z,14.95
2018-11-29T04:15:09.510Z,16.02
2018-11-29T04:17:41.591Z,18.05
2018-11-29T04:20:14.659Z,19.98
2018-11-29T04:22:46.703Z,15.88
2018-11-29T04:25:18.777Z,16.25
2018-11-29T04:27:50.851Z,15.48
2018-11-29T04:30:22.913Z,18.55
2018-11-29T04:32:54.974Z,15.80
2018-11-29T04:35:27.015Z,22.10
2018-11-29T04:37:59.089Z,17.85
2018-11-29T04:40:31.123Z,19.70
2018-11-29T04:43:03.215Z,30.25
2018-11-29T04:46:43.693Z,19.67
2018-11-29T04:49:15.823Z,28.57
2018-11-29T04:51:47.893Z,18.87
2018-11-29T04:54:19.962Z,17.55
2018-11-29T04:56:52.035Z,17.80
2018-11-29T04:59:24.112Z,17.07
2018-11-29T05:01:56.211Z,19.00
2018-11-29T05:04:28.272Z,21.60
2018-11-29T05:07:00.281Z,19.07
2018-11-29T05:09:32.342Z,19.00
2018-11-29T05:12:04.372Z,20.27
2018-11-29T05:14:36.399Z,18.92
2018-11-29T05:17:08.445Z,20.80
2018-11-29T05:19:40.501Z,18.42
2018-11-29T05:22:12.527Z,21.33
2018-11-29T05:24:44.581Z,18.85
2018-11-29T05:27:16.708Z,17.85
2018-11-29T05:29:48.818Z,20.20
2018-11-29T05:32:20.885Z,20.88
2018-11-29T05:34:52.943Z,22.67
2018-11-29T05:37:25.045Z,21.37
2018-11-29T05:39:57.112Z,20.37
2018-11-29T05:42:29.201Z,20.27
2018-11-29T05:45:01.254Z,21.50
2018-11-29T05:47:33.356Z,23.42
2018-11-29T05:50:07.504Z,20.20
2018-11-29T05:52:39.854Z,20.95
2018-11-29T05:55:12.092Z,22.32
2018-11-29T05:57:44.155Z,20.12
2018-11-29T06:00:16.239Z,24.00
2018-11-29T06:02:48.290Z,21.73
2018-11-29T06:05:20.361Z,21.50
2018-11-29T06:07:52.413Z,20.10
2018-11-29T06:10:24.499Z,20.27
2018-11-29T06:12:56.564Z,21.27
2018-11-29T06:15:28.627Z,22.95
2018-11-29T06:18:00.662Z,20.23
2018-11-29T06:20:32.724Z,20.90
2018-11-29T06:23:05.428Z,20.95
2018-11-29T06:25:37.473Z,20.37
2018-11-29T06:28:09.462Z,20.32
2018-11-29T06:30:41.526Z,20.62
2018-11-29T06:33:13.517Z,20.68
2018-11-29T06:35:45.557Z,19.15
2018-11-29T06:38:17.561Z,19.92
2018-11-29T06:40:49.591Z,21.55
2018-11-29T06:43:21.653Z,19.70
2018-11-29T06:45:53.720Z,20.02
2018-11-29T06:48:25.745Z,18.70
2018-11-29T06:50:57.756Z,20.72
2018-11-29T06:53:35.386Z,18.60
2018-11-29T06:56:07.449Z,20.02
2018-11-29T06:58:39.645Z,20.12
2018-11-29T07:01:11.735Z,18.92
2018-11-29T07:03:43.741Z,19.35
2018-11-29T07:06:17.502Z,19.92
2018-11-29T07:08:49.558Z,18.05
2018-11-29T07:11:21.569Z,19.15
2018-11-29T07:13:53.626Z,20.37
2018-11-29T07:16:25.731Z,20.60
2018-11-29T07:18:57.765Z,19.42
2018-11-29T07:21:41.581Z,19.42
2018-11-29T07:24:13.573Z,19.70
2018-11-29T07:26:45.629Z,19.32
2018-11-29T07:29:17.631Z,19.70
2018-11-29T07:31:49.674Z,19.23
2018-11-29T07:34:21.732Z,19.57
2018-11-29T07:36:53.749Z,18.80
2018-11-29T07:39:26.814Z,18.52
2018-11-29T07:41:58.876Z,18.42
2018-11-29T07:44:30.928Z,17.85
2018-11-29T07:47:03.049Z,19.48
2018-11-29T07:49:35.096Z,18.48
2018-11-29T07:52:07.141Z,20.65
2018-11-29T07:54:39.168Z,19.40
2018-11-29T07:57:11.218Z,20.27
2018-11-29T07:59:43.268Z,19.60
2018-11-29T08:02:15.349Z,20.85
2018-11-29T08:04:47.416Z,19.85
2018-11-29T08:07:19.969Z,19.98
2018-11-29T08:09:52.048Z,18.95
2018-11-29T08:12:24.153Z,21.87
2018-11-29T08:14:56.217Z,20.52
2018-11-29T08:17:28.435Z,19.60
2018-11-29T08:20:00.618Z,19.52
2018-11-29T08:22:32.745Z,19.55
2018-11-29T08:25:04.881Z,21.00
2018-11-29T08:27:36.870Z,18.20
2018-11-29T08:30:15.845Z,20.97
2018-11-29T08:32:47.830Z,19.10
2018-11-29T08:35:19.814Z,17.73
2018-11-29T08:37:51.804Z,18.80
2018-11-29T08:40:23.790Z,17.00
2018-11-29T08:42:55.785Z,17.73
2018-11-29T08:45:27.789Z,19.25
2018-11-29T08:48:00.789Z,18.05
2018-11-29T08:50:32.805Z,17.57
2018-11-29T08:53:05.163Z,16.67
2018-11-29T08:55:37.121Z,18.55
2018-11-29T08:58:09.096Z,16.65
2018-11-29T09:00:41.082Z,19.23
2018-11-29T09:03:13.082Z,17.50
2018-11-29T09:05:45.040Z,16.82
2018-11-29T09:08:17.045Z,17.05
2018-11-29T09:10:49.027Z,17.27
2018-11-29T09:13:20.993Z,18.40
2018-11-29T09:15:52.967Z,17.40
2018-11-29T09:18:25.096Z,17.35
2018-11-29T09:20:57.252Z,18.07
2018-11-29T09:23:29.240Z,16.45
2018-11-29T09:26:01.234Z,16.40
2018-11-29T09:28:33.233Z,18.17
2018-11-29T09:31:05.486Z,18.60
2018-11-29T09:33:37.473Z,17.55
2018-11-29T09:36:09.453Z,15.70
2018-11-29T09:38:41.466Z,16.65
2018-11-29T09:41:13.537Z,17.92
2018-11-29T09:43:45.581Z,15.53
2018-11-29T09:46:17.559Z,15.72
2018-11-29T09:48:49.774Z,16.32
2018-11-29T09:51:21.845Z,15.78
2018-11-29T09:53:53.985Z,16.85
2018-11-29T09:56:25.996Z,15.53
2018-11-29T09:58:58.106Z,15.93
2018-11-29T10:01:30.168Z,14.35
2018-11-29T10:04:02.213Z,14.95
2018-11-29T10:06:34.188Z,15.28
2018-11-29T10:09:08.587Z,15.15
2018-11-29T10:11:40.566Z,15.18
2018-11-29T10:14:12.533Z,16.52
2018-11-29T10:16:44.532Z,15.70
2018-11-29T10:19:16.559Z,15.08
2018-11-29T10:21:48.559Z,14.20
2018-11-29T10:24:20.530Z,14.60
2018-11-29T10:26:52.497Z,13.85
2018-11-29T10:29:24.511Z,13.35
2018-11-29T10:31:56.481Z,13.13
2018-11-29T10:34:28.490Z,12.75
2018-11-29T10:37:00.482Z,13.00
2018-11-29T10:39:32.509Z,14.95
2018-11-29T10:42:04.645Z,12.70
2018-11-29T10:44:36.709Z,13.18
2018-11-29T10:47:08.794Z,11.93
2018-11-29T10:49:40.877Z,12.30
2018-11-29T10:52:12.874Z,10.98
2018-11-29T10:54:44.834Z,10.70
2018-11-29T10:57:16.838Z,13.48
2018-11-29T10:59:52.889Z,12.25
2018-11-29T11:02:28.773Z,11.50
2018-11-29T11:05:00.827Z,12.05
2018-11-29T11:07:33.060Z,10.53
2018-11-29T11:10:05.432Z,10.35
2018-11-29T11:12:37.433Z,12.28
2018-11-29T11:15:09.503Z,11.28
2018-11-29T11:17:41.592Z,12.33
2018-11-29T11:20:13.711Z,11.90
2018-11-29T11:22:47.757Z,11.33
2018-11-29T11:25:19.778Z,10.63
2018-11-29T11:27:51.853Z,11.93
2018-11-29T11:30:23.845Z,12.30
2018-11-29T11:32:55.850Z,11.75
2018-11-29T11:35:29.178Z,12.43
2018-11-29T11:38:01.204Z,12.85
2018-11-29T11:40:33.213Z,13.30
2018-11-29T11:43:06.082Z,12.30
2018-11-29T11:45:38.088Z,12.20
2018-11-29T11:48:10.114Z,12.53
2018-11-29T11:50:42.092Z,12.53
2018-11-29T11:53:14.050Z,11.50
2018-11-29T11:55:53.115Z,11.00
2018-11-29T11:58:18.183Z,11.25
2018-11-29T12:00:50.215Z,12.23
2018-11-29T12:03:22.185Z,12.15
2018-11-29T12:05:54.267Z,11.78
2018-11-29T12:08:26.256Z,11.68
2018-11-29T12:10:58.238Z,10.13
2018-11-29T12:13:30.287Z,10.80
2018-11-29T12:16:02.308Z,11.28
2018-11-29T12:18:34.309Z,11.00
2018-11-29T12:21:06.380Z,10.65
2018-11-29T12:23:38.386Z,11.35
2018-11-29T12:26:10.388Z,10.85
2018-11-29T12:28:42.397Z,11.90
2018-11-29T12:31:14.423Z,11.10
2018-11-29T12:33:46.404Z,10.20
2018-11-29T12:36:18.436Z,10.43
2018-11-29T12:38:50.422Z,11.18
2018-11-29T12:41:22.447Z,11.78
2018-11-29T12:43:54.441Z,12.00
2018-11-29T12:46:26.445Z,11.53
2018-11-29T12:48:58.554Z,11.78
2018-11-29T12:51:30.492Z,11.55
2018-11-29T12:54:02.535Z,12.93
2018-11-29T12:56:34.518Z,12.65
2018-11-29T12:59:06.502Z,10.75
2018-11-29T13:01:38.457Z,12.45
2018-11-29T13:04:10.432Z,11.70
2018-11-29T13:06:42.442Z,10.93
2018-11-29T13:09:14.408Z,11.57
2018-11-29T13:11:46.376Z,11.40
2018-11-29T13:14:18.459Z,12.53
2018-11-29T13:16:50.404Z,12.03
2018-11-29T13:19:22.365Z,11.28
2018-11-29T13:21:54.346Z,11.25
2018-11-29T13:24:26.312Z,9.88
2018-11-29T13:26:58.566Z,9.90
2018-11-29T13:29:30.536Z,9.10
2018-11-29T13:32:02.513Z,10.50
2018-11-29T13:34:34.477Z,10.85
2018-11-29T13:37:06.479Z,10.53
2018-11-29T13:39:38.451Z,9.80
2018-11-29T13:42:10.489Z,12.93
2018-11-29T13:44:42.414Z,11.25
2018-11-29T13:47:14.379Z,12.28
2018-11-29T13:49:46.323Z,10.55
2018-11-29T13:52:18.301Z,13.28
2018-11-29T13:54:50.268Z,11.88
2018-11-29T13:57:22.224Z,11.68
2018-11-29T13:59:54.161Z,12.15
2018-11-29T14:02:26.133Z,11.22
2018-11-29T14:04:58.089Z,11.60
2018-11-29T14:07:30.025Z,12.58
2018-11-29T14:10:02.017Z,12.23
2018-11-29T14:12:33.974Z,11.30
2018-11-29T14:15:09.063Z,11.10
2018-11-29T14:17:41.051Z,11.28
2018-11-29T14:20:13.504Z,11.57
2018-11-29T14:22:45.465Z,11.90
2018-11-29T14:25:17.477Z,10.63
2018-11-29T14:27:50.721Z,11.05
2018-11-29T14:30:23.818Z,9.65
2018-11-29T14:32:56.898Z,10.75
2018-11-29T14:35:28.887Z,10.93
2018-11-29T14:38:00.833Z,9.90
2018-11-29T14:40:33.833Z,10.72
2018-11-29T14:43:06.262Z,11.30
2018-11-29T14:45:38.217Z,10.65
2018-11-29T14:48:10.166Z,12.55
2018-11-29T14:50:43.576Z,12.33
2018-11-29T14:53:15.525Z,11.18
2018-11-29T14:55:47.471Z,10.38
2018-11-29T14:58:19.928Z,10.88
2018-11-29T15:00:51.418Z,10.10
2018-11-29T15:03:23.383Z,11.25
2018-11-29T15:05:55.378Z,11.03
2018-11-29T15:08:27.356Z,10.13
2018-11-29T15:10:59.331Z,11.75
2018-11-29T15:13:31.317Z,11.00
2018-11-29T15:16:03.708Z,12.13
2018-11-29T15:18:35.673Z,11.38
2018-11-29T15:21:07.618Z,10.63
2018-11-29T15:23:39.590Z,11.12
2018-11-29T15:26:11.553Z,11.30
2018-11-29T15:28:43.523Z,11.55
2018-11-29T15:31:15.485Z,11.63
2018-11-29T15:33:47.425Z,10.75
2018-11-29T15:36:19.410Z,12.37
2018-11-29T15:38:51.368Z,11.38
2018-11-29T15:41:23.325Z,11.48
2018-11-29T15:43:55.290Z,11.83
2018-11-29T15:46:27.238Z,12.80
2018-11-29T15:49:00.226Z,11.80
2018-11-29T15:51:31.157Z,11.00
2018-11-29T15:54:03.148Z,12.10
2018-11-29T15:56:35.238Z,12.20
2018-11-29T15:59:07.177Z,12.35
2018-11-29T16:01:39.108Z,12.25
2018-11-29T16:04:11.049Z,12.43
2018-11-29T16:06:43.012Z,11.73
2018-11-29T16:09:15.021Z,11.57
2018-11-29T16:11:46.997Z,12.60
2018-11-29T16:14:25.594Z,12.90
2018-11-29T16:16:57.549Z,11.53
2018-11-29T16:19:29.512Z,13.60
2018-11-29T16:22:01.621Z,13.05
2018-11-29T16:24:33.589Z,14.15
2018-11-29T16:27:05.734Z,13.15
2018-11-29T16:29:37.733Z,13.93
2018-11-29T16:32:10.637Z,14.18
2018-11-29T16:34:42.619Z,12.43
2018-11-29T16:37:14.610Z,14.40
2018-11-29T16:39:46.601Z,13.25
2018-11-29T16:42:18.572Z,31.15
2018-11-29T16:44:50.607Z,15.32
2018-11-29T16:47:22.630Z,12.53
2018-11-29T16:49:55.633Z,13.25
2018-11-29T16:52:29.681Z,13.80
2018-11-29T16:55:01.712Z,16.73
2018-11-29T16:57:33.788Z,15.78
2018-11-29T17:00:10.609Z,14.13
2018-11-29T17:02:42.613Z,14.33
2018-11-29T17:05:14.718Z,15.93
2018-11-29T17:07:47.688Z,16.23
2018-11-29T17:10:20.673Z,13.90
2018-11-29T17:12:56.856Z,14.13
2018-11-29T17:15:28.810Z,13.00
2018-11-29T17:18:01.998Z,12.93
2018-11-29T17:20:34.817Z,13.80
2018-11-29T17:23:08.089Z,14.83
2018-11-29T17:25:40.069Z,13.13
2018-11-29T17:28:12.036Z,14.78
2018-11-29T17:30:43.997Z,14.33
2018-11-29T17:33:15.961Z,12.73
2018-11-29T17:35:47.926Z,13.70
2018-11-29T17:38:19.923Z,13.93
2018-11-29T17:40:51.915Z,13.80
2018-11-29T17:43:23.885Z,13.10
2018-11-29T17:45:55.863Z,12.98
2018-11-29T17:48:27.849Z,14.70
2018-11-29T17:51:00.604Z,14.38
2018-11-29T17:53:32.698Z,12.75
2018-11-29T17:56:05.352Z,13.45
2018-11-29T17:58:37.417Z,14.80
2018-11-29T18:01:09.468Z,13.35
2018-11-29T18:03:41.453Z,13.93
2018-11-29T18:06:13.435Z,13.25
2018-11-29T18:08:45.410Z,14.00
2018-11-29T18:11:17.398Z,12.37
2018-11-29T18:13:49.432Z,14.00
2018-11-29T18:16:24.963Z,13.45
2018-11-29T18:18:56.989Z,15.45
2018-11-29T18:21:28.977Z,15.53
2018-11-29T18:24:01.595Z,16.93
2018-11-29T18:26:33.687Z,19.90
2018-11-29T18:29:05.901Z,16.25
2018-11-29T18:31:37.926Z,16.17
2018-11-29T18:34:16.548Z,25.15
2018-11-29T18:36:48.526Z,16.35
2018-11-29T18:39:20.592Z,18.67
2018-11-29T18:41:52.633Z,17.85
2018-11-29T18:44:24.591Z,14.53
2018-11-29T18:46:57.149Z,16.10
2018-11-29T18:49:29.128Z,17.10
2018-11-29T18:52:02.077Z,17.23
2018-11-29T18:54:34.726Z,17.37
2018-11-29T18:57:06.078Z,16.50
2018-11-29T18:59:38.106Z,16.95
2018-11-29T19:02:10.092Z,16.10
2018-11-29T19:04:42.109Z,17.17
2018-11-29T19:07:14.077Z,17.20
2018-11-29T19:09:46.063Z,19.80
2018-11-29T19:12:18.166Z,18.05
2018-11-29T19:14:50.192Z,15.65
2018-11-29T19:17:25.058Z,17.50
2018-11-29T19:19:54.176Z,17.55
2018-11-29T19:22:26.134Z,17.65
2018-11-29T19:24:58.102Z,18.75
2018-11-29T19:27:30.071Z,17.62
2018-11-29T19:30:04.288Z,20.60
2018-11-29T19:32:34.930Z,16.23
2018-11-29T19:35:07.528Z,23.38
2018-11-29T19:37:39.625Z,19.50
2018-11-29T19:40:13.667Z,20.82
2018-11-29T19:42:45.592Z,18.77
2018-11-29T19:45:17.542Z,18.48
2018-11-29T19:47:49.481Z,16.10
2018-11-29T19:50:21.449Z,25.80
2018-11-29T19:52:54.917Z,22.07
2018-11-29T19:55:28.177Z,21.57
2018-11-29T19:58:00.127Z,20.90
2018-11-29T20:00:32.082Z,24.35
2018-11-29T20:03:04.074Z,22.85
2018-11-29T20:05:36.077Z,19.15
2018-11-29T20:08:08.041Z,18.45
2018-11-29T20:10:40.097Z,23.62
2018-11-29T20:13:13.100Z,22.50
2018-11-29T20:15:48.089Z,20.45
2018-11-29T20:18:20.017Z,17.15
2018-11-29T20:20:51.972Z,19.30
2018-11-29T20:23:23.909Z,21.27
2018-11-29T20:25:55.852Z,22.77
2018-11-29T20:28:27.793Z,18.65
2018-11-29T20:30:59.756Z,17.00
2018-11-29T20:33:31.705Z,21.17
2018-11-29T20:36:04.032Z,21.75
2018-11-29T20:38:35.993Z,20.02
2018-11-29T20:41:08.533Z,26.25
2018-11-29T20:43:40.473Z,25.23
2018-11-29T20:46:12.619Z,19.90
2018-11-29T20:48:45.631Z,21.42
2018-11-29T20:51:17.572Z,20.85
2018-11-29T20:53:49.496Z,23.62
2018-11-29T20:56:21.485Z,20.00
2018-11-29T20:58:54.000Z,16.77
2018-11-29T21:01:25.948Z,21.45
2018-11-29T21:03:57.901Z,18.67
2018-11-29T21:06:29.898Z,19.20
2018-11-29T21:09:01.983Z,23.12
2018-11-29T21:11:34.608Z,20.27
2018-11-29T21:14:06.598Z,20.90
2018-11-29T21:16:38.546Z,18.30
2018-11-29T21:19:10.508Z,19.17
2018-11-29T21:21:42.520Z,18.45
2018-11-29T21:24:14.870Z,20.17
2018-11-29T21:26:46.815Z,20.32
2018-11-29T21:29:18.814Z,19.05
2018-11-29T21:31:50.832Z,17.25
2018-11-29T21:34:23.674Z,16.65
2018-11-29T21:36:54.948Z,20.12
2018-11-29T21:39:26.918Z,18.27
2018-11-29T21:41:58.885Z,17.30
2018-11-29T21:44:30.914Z,20.00
2018-11-29T21:47:02.885Z,19.17
2018-11-29T21:49:34.861Z,17.48
2018-11-29T21:52:06.936Z,19.17
2018-11-29T21:54:38.908Z,18.32
2018-11-29T21:57:10.957Z,40.23
2018-11-29T21:59:42.924Z,27.10
2018-11-29T22:02:14.890Z,54.38
2018-11-29T22:04:46.846Z,17.90
2018-11-29T22:07:19.422Z,17.87
2018-11-29T22:09:51.407Z,17.05
2018-11-29T22:12:24.823Z,16.90
2018-11-29T22:14:56.866Z,18.67
2018-11-29T22:17:28.925Z,21.48
2018-11-29T22:20:00.956Z,18.55
2018-11-29T22:22:32.945Z,21.55
2018-11-29T22:25:05.885Z,17.60
2018-11-29T22:27:37.896Z,19.25
2018-11-29T22:30:09.919Z,19.12
2018-11-29T22:32:41.919Z,17.80
2018-11-29T22:35:13.902Z,19.05
2018-11-29T22:37:45.848Z,14.83
2018-11-29T22:40:17.868Z,16.05
2018-11-29T22:42:49.835Z,17.70
2018-11-29T22:45:21.833Z,15.93
2018-11-29T22:47:53.803Z,15.90
2018-11-29T22:50:25.807Z,15.85
2018-11-29T22:52:57.845Z,18.12
2018-11-29T22:55:29.831Z,17.48
2018-11-29T22:58:01.858Z,16.10
2018-11-29T23:00:53.704Z,17.73
2018-11-29T23:03:25.804Z,16.82
2018-11-29T23:05:57.869Z,14.90
2018-11-29T23:08:29.905Z,18.15
2018-11-29T23:11:01.964Z,15.32
2018-11-29T23:13:34.040Z,16.75
2018-11-29T23:16:06.093Z,17.87
2018-11-29T23:18:38.104Z,16.00
2018-11-29T23:21:10.145Z,15.43
2018-11-29T23:23:42.224Z,16.95
2018-11-29T23:26:14.229Z,16.65
2018-11-29T23:28:46.254Z,16.55
2018-11-29T23:31:18.393Z,16.45
2018-11-29T23:33:50.398Z,15.70
2018-11-29T23:36:22.413Z,15.20
2018-11-29T23:38:54.717Z,15.25
2018-11-29T23:41:26.722Z,14.75
2018-11-29T23:43:58.717Z,17.20
2018-11-29T23:46:30.725Z,14.93
2018-11-29T23:49:02.797Z,14.75
2018-11-29T23:51:34.797Z,16.60
2018-11-29T23:54:06.805Z,14.85
2018-11-29T23:56:38.866Z,16.75
2018-11-29T23:59:10.865Z,15.70
